createdAt,value
2023-01-05T00:08:37.146Z,9.64
2023-01-05T00:18:57.495Z,9.58
2023-01-05T00:28:58.811Z,9.66
2023-01-05T00:39:00.044Z,9.81
2023-01-05T00:49:01.324Z,9.63
2023-01-05T00:59:02.563Z,9.70
2023-01-05T01:09:03.855Z,9.77
2023-01-05T01:19:05.649Z,9.72
2023-01-05T01:29:07.104Z,9.68
2023-01-05T01:39:08.374Z,9.73
2023-01-05T01:49:11.435Z,9.81
2023-01-05T01:59:12.685Z,9.80
2023-01-05T02:09:13.952Z,9.86
2023-01-05T02:19:15.167Z,9.86
2023-01-05T02:29:16.424Z,9.89
2023-01-05T02:39:17.687Z,9.96
2023-01-05T02:49:18.924Z,9.93
2023-01-05T02:59:20.158Z,10.02
2023-01-05T03:09:25.867Z,10.10
2023-01-05T03:19:36.186Z,10.12
2023-01-05T03:29:56.300Z,10.15
2023-01-05T03:39:57.527Z,10.24
2023-01-05T03:49:58.741Z,10.34
2023-01-05T03:59:59.983Z,10.42
2023-01-05T04:10:01.386Z,10.52
2023-01-05T04:20:02.713Z,10.66
2023-01-05T04:30:04.064Z,10.57
2023-01-05T04:40:05.340Z,10.64
2023-01-05T04:50:06.601Z,10.62
2023-01-05T05:00:07.839Z,10.49
2023-01-05T05:10:09.103Z,10.53
2023-01-05T05:20:10.358Z,10.34
2023-01-05T05:30:11.720Z,10.21
2023-01-05T05:40:12.958Z,10.06
2023-01-05T05:50:14.238Z,10.12
2023-01-05T06:00:15.482Z,10.06
2023-01-05T06:10:16.721Z,10.07
2023-01-05T06:20:18.143Z,10.08
2023-01-05T06:30:19.433Z,10.05
2023-01-05T06:40:20.694Z,10.00
2023-01-05T06:50:21.946Z,10.00
2023-01-05T07:00:23.474Z,9.98
2023-01-05T07:10:24.746Z,10.13
2023-01-05T07:20:25.968Z,10.20
2023-01-05T07:30:27.321Z,10.37
2023-01-05T07:40:28.689Z,10.65
2023-01-05T07:50:29.973Z,10.71
2023-01-05T08:00:31.194Z,10.85
2023-01-05T08:10:32.525Z,10.91
2023-01-05T08:20:33.837Z,10.83
2023-01-05T08:30:35.139Z,10.82
2023-01-05T08:40:36.369Z,10.87
2023-01-05T08:50:38.420Z,10.92
2023-01-05T09:00:39.763Z,10.95
2023-01-05T09:10:41.014Z,10.91
2023-01-05T09:20:42.254Z,10.91
2023-01-05T09:30:50.217Z,10.97
2023-01-05T09:40:51.951Z,11.00
2023-01-05T09:50:53.195Z,11.14
2023-01-05T10:00:54.432Z,11.29
2023-01-05T10:11:14.288Z,11.29
2023-01-05T10:21:15.692Z,11.44
2023-01-05T10:31:16.954Z,11.38
2023-01-05T10:41:18.192Z,11.42
2023-01-05T10:51:34.271Z,11.59
2023-01-05T11:01:35.659Z,11.79
2023-01-05T11:11:36.998Z,12.16
2023-01-05T11:21:39.459Z,12.30
2023-01-05T11:31:42.982Z,12.53
2023-01-05T11:41:44.449Z,12.39
2023-01-05T11:51:45.833Z,11.97
2023-01-05T12:01:47.121Z,11.90
2023-01-05T12:12:08.650Z,11.92
2023-01-05T12:43:17.322Z,12.25
2023-01-05T12:53:18.585Z,12.33
2023-01-05T13:03:19.808Z,12.36
2023-01-05T13:13:21.148Z,12.42
2023-01-05T13:23:22.509Z,12.52
2023-01-05T13:33:23.733Z,12.46
2023-01-05T13:43:25.002Z,12.23
2023-01-05T13:53:26.285Z,12.13
2023-01-05T14:03:27.533Z,12.01
2023-01-05T14:13:28.766Z,11.89
2023-01-05T14:23:30.397Z,11.91
2023-01-05T14:33:31.635Z,11.78
2023-01-05T14:43:32.924Z,11.70
2023-01-05T14:53:34.152Z,11.76
2023-01-05T15:03:36.544Z,11.60
2023-01-05T15:13:38.041Z,11.53
2023-01-05T15:23:39.466Z,11.46
2023-01-05T15:33:40.712Z,11.41
2023-01-05T15:43:42.501Z,11.27
2023-01-05T15:53:44.309Z,11.24
2023-01-05T16:03:45.545Z,11.20
2023-01-05T16:13:46.843Z,11.25
2023-01-05T16:23:48.133Z,11.22
2023-01-05T16:33:49.371Z,11.15
2023-01-05T16:43:50.722Z,11.11
2023-01-05T16:53:52.002Z,11.17
2023-01-05T17:03:53.297Z,11.11
2023-01-05T17:13:54.625Z,11.05
2023-01-05T17:23:55.918Z,11.14
2023-01-05T17:33:57.463Z,11.13
2023-01-05T17:43:58.700Z,10.95
2023-01-05T17:53:59.929Z,10.90
2023-01-05T18:04:01.141Z,10.93
2023-01-05T18:14:02.425Z,10.86
2023-01-05T18:24:03.782Z,10.87
2023-01-05T18:34:05.119Z,10.80
2023-01-05T18:44:06.785Z,10.61
2023-01-05T18:54:08.171Z,10.51
2023-01-05T19:04:09.407Z,10.46
2023-01-05T19:14:10.642Z,10.43
2023-01-05T19:24:11.902Z,10.33
2023-01-05T19:34:14.778Z,10.37
2023-01-05T19:44:16.058Z,10.34
2023-01-05T19:54:17.324Z,10.38
2023-01-05T20:04:18.621Z,10.39
2023-01-05T20:14:20.773Z,10.44
2023-01-05T20:24:22.459Z,10.42
2023-01-05T20:34:23.691Z,10.40
2023-01-05T20:44:24.966Z,10.50
2023-01-05T20:54:26.287Z,10.50
2023-01-05T21:04:27.534Z,10.47
2023-01-05T21:14:28.833Z,10.45
2023-01-05T21:24:30.105Z,10.45
2023-01-05T21:34:31.357Z,10.46
2023-01-05T21:44:32.992Z,10.45
2023-01-05T21:54:53.130Z,10.44
2023-01-05T22:04:54.392Z,10.69
2023-01-05T22:14:55.613Z,10.58
2023-01-05T22:24:56.994Z,10.60
2023-01-05T22:34:58.230Z,10.61
2023-01-05T22:44:59.513Z,10.66
2023-01-05T22:55:00.735Z,10.67
2023-01-05T23:05:03.906Z,10.63
2023-01-05T23:15:05.424Z,10.71
2023-01-05T23:25:06.840Z,10.78
2023-01-05T23:35:08.093Z,10.69
2023-01-05T23:45:09.336Z,10.68
2023-01-05T23:55:10.565Z,10.68
